Toronto City

CXTO · 安大略, 加拿大

罗盘
风向 的 风向 310°
风向 到 风: 17 kt, 阵阵 22 kt, 5 beaufort

添加一条跑道以查看侧风和逆风信息。

添置 跑道
0 1.000 2.000 3.000 4.000 5.000
BKN 3.900 ft
OVC 4.700 ft
METAR CYTZ 071900Z AUTO 31017G22KT 9SM BKN039 OVC047 11/02 A3011 RMK SLP200

METAR Toronto City - CXTO

Toronto City是多伦多,加拿大中的未知。 视场标高为377 ft。 该领域的国际民航组织标志是CXTO.

这份报告是针对2022年10月7日 15:00, 当地时间在比利·畢曉普多倫多市機場进行的。

机场观察

风向为310°,速度为17 kt。 已测得22 kt的阵风。

可见度为9 mi。

有碎云在3.900 ft的高度 和 乌云密布在4.700 ft的高度。 破损或更高的上限为3.900 ft。

温度和风寒是11 °C。 露点为2 °C,相对湿度为54%。 海平面上的气压为30,11 inHg (QNH)。

白天

今天,太阳从07:22升起,在18:48降落。 这适用于Toronto City,世界夏令时可能有所不同。 当地时间与世界标准时间之间的时差为-4 小时。 夏令时目前正在进行中。

公司介绍

我们没有关于这个机场的公司信息。

体会

到Vliegles.nl去找飞行课程,跳伞和其他飞行体验。 浏览页面,了解Toronto City附近所有可用的活动。 你也可以使用搜索功能来寻找你所在地附近的特定飞行课程、跳伞或其他飞行体验。

乌云

3.900 ft BKN 碎云
4.700 ft OVC 乌云密布

温度 & 天气

温度 11 °C
露点 2 °C
相对湿度 54%
Kp-index 1 (0-9)

评论

SLP200海平面压力为30,12 inHg (30,12 inHg)

白天

日出
07:22
中午
13:05
日落
18:48 (3h 28m)

小工具

你想在你的网站上有一个关于Toronto City的当前航空天气(METAR)的小部件吗?

</> 显示HTML代码

我们和第三方通过cookies跟踪您在我们网站上的上网行为。如果您继续,我们认为您同意我们的cookie政策。 了解更多